A- A+ FrançaisEnglishEspañol中国

le plus proche LFDX Fumel-MontayralLFBT Tarbes-Lourdes-PyrénéesLFQB Troyes-Barberey LFAQ Albert-Bray

manche à air

La météo aéronautique pour les pilotes, la préparation du vol avec les METAR (METeorological Aerodrome Report, message d'observation des conditions météorologiques pour l'aviation) et Les TAF (Terminal Aerodrome Forecast : message de prévision à court terme des conditions météorologiques pour l'aviation). Et les autres ressources comme les VAC (Visual Approch Chart) et les NOTAM (Notice To Airman) pour préprer les vols.

Aéroport Toussus-Le-Noble (France) / OACI LFPN/ IATA TNF

L'altitude de l'aéroport Toussus-Le-Noble est de 164 m=538 ft. Il est situé à proximité de Paris (France). La météo générale à 5 jours est disponible pour Guyancourt situé à 3.3 km.

METAR de l'aéroport Toussus-Le-Noble - LFPN

LFPN 221230Z AUTO 04008KT 9000 NSC 03/M02 Q1034 NOSIG

Décodage du METAR de l'aéroport Toussus-Le-Noble (France)

METAR émis par LFPN le mercredi 22 janvier 2020 à 12:30 heure TU. C'est un METAR généré automatiquement. Attention ce METAR est obsolète car il a été émis il y a 4 heure et 1 minutes.

La visibilité est de 9 km=5.6 sm.

La température est de 3°C=37 °F et le point rosée est de -2°C=28 °F . Ce qui correspond à 70% d'humidité relative.

Le QNH est de 1034 hPa=30.53 inHg

Vent de 8 kt=15 km/h, orienté à 40°.

Aucun nuage à une hauteur inférieure à 5000 ft ou sous l'altitude minimale de secteur. Aucun cumulonimbus ou cumulus bourgeonnant, quelle que soit leur altitude (No Significant Clouds).

Aucun changement significatif dans les deux heures à venir

TAF de l'aéroport Toussus-Le-Noble - LFPN

LFPN 221233Z 2212/2221 04005KT 8000 NSC

LFPN 221233Z 2212/2221 04005KT 8000 NSC

Aéroport à proximité de Toussus-Le-Noble

Météo générale à 5 jours à Guyancourt (3.3 km)LFPV Aéroport Villacoublay-Velizy (7 km)LFPZ Aéroport St-Cyr-L'ecole (7 km)LFPX Aéroport Chavenay-Villepreux (14 km)LFPF Aéroport Beynes-Thiverval (18 km)LFPO Aéroport Paris-Orly (20 km)LFXU Aéroport Les-Mureaux (30 km)

VAC de l'aéroport Toussus-Le-Noble - LFPN

La carte d'approche à vue (VAC Visual Approah Chart) est fournie sans aucune garantie de son actualité. Le pilote est le seul responsable de la vérification de sa validité avant de l'utiliser opérationnellement pour préparer un vol ou l'utiliser lors de sa navigation.

VAC SIA de LFPN

Vue aérienne de l'aéroport Toussus-Le-Noble

NOTAM de l'aéroport Toussus-Le-Noble

Les NOTAM sont fournis sans aucune garantie de leur actualité. Le pilote est le seul responsable de la vérification de sa validité avant de l'utiliser opérationnellement pour préparer un vol ou l'utiliser lors de sa navigation.

Pas de NOTAM

Sources des données